Time;durP1;ratioP1;P1;durP2;ratioP2;P2;SDS_P1;SDS_P2;PMS_P1;PMS_P2;Temp;Humidity;BMP_temperature;BMP_pressure;BME280_temperature;BME280_humidity;BME280_pressure;Samples;Min_cycle;Max_cycle;Signal;HPM_P1;HPM_P2
2021/07/02 00:00:39;;;;;;;6.2;5;;;;;;;;;;;;;
2021/07/02 00:03:04;;;;;;;7.7;5;;;;;;;;;;;;;
2021/07/02 00:05:29;;;;;;;6.5;5.1;;;;;;;;;;;;;
2021/07/02 00:07:54;;;;;;;5;4.5;;;;;;;;;;;;;
2021/07/02 00:10:19;;;;;;;5.8;5.1;;;;;;;;;;;;;
2021/07/02 00:12:45;;;;;;;6.5;5.3;;;;;;;;;;;;;
2021/07/02 00:15:10;;;;;;;5.8;5.2;;;;;;;;;;;;;
2021/07/02 00:17:37;;;;;;;6;5.4;;;;;;;;;;;;;
2021/07/02 00:20:02;;;;;;;7.3;5.6;;;;;;;;;;;;;
2021/07/02 00:22:28;;;;;;;6;5.4;;;;;;;;;;;;;
2021/07/02 00:24:53;;;;;;;6.2;5.6;;;;;;;;;;;;;
2021/07/02 00:27:18;;;;;;;9.5;5.5;;;;;;;;;;;;;
2021/07/02 00:29:43;;;;;;;6.8;5.5;;;;;;;;;;;;;
2021/07/02 00:32:11;;;;;;;7.7;5.9;;;;;;;;;;;;;
2021/07/02 00:34:34;;;;;;;7.9;6.2;;;;;;;;;;;;;
2021/07/02 00:36:59;;;;;;;7.5;5.9;;;;;;;;;;;;;
2021/07/02 00:39:24;;;;;;;7.8;5.9;;;;;;;;;;;;;
2021/07/02 00:41:49;;;;;;;8.6;5.7;;;;;;;;;;;;;
2021/07/02 00:44:15;;;;;;;6.7;6;;;;;;;;;;;;;
2021/07/02 00:46:40;;;;;;;5.8;5.3;;;;;;;;;;;;;
2021/07/02 00:49:05;;;;;;;6.3;5.7;;;;;;;;;;;;;
2021/07/02 00:51:31;;;;;;;6.9;6.2;;;;;;;;;;;;;
2021/07/02 00:53:56;;;;;;;8.1;5.9;;;;;;;;;;;;;
2021/07/02 00:56:22;;;;;;;7;5.9;;;;;;;;;;;;;
2021/07/02 00:58:47;;;;;;;6.6;5.1;;;;;;;;;;;;;
2021/07/02 01:01:15;;;;;;;4.8;4.2;;;;;;;;;;;;;
2021/07/02 01:03:38;;;;;;;5.3;4.6;;;;;;;;;;;;;
2021/07/02 01:06:03;;;;;;;7.5;5.2;;;;;;;;;;;;;
2021/07/02 01:08:28;;;;;;;6.2;4.9;;;;;;;;;;;;;
2021/07/02 01:10:56;;;;;;;5.6;4.6;;;;;;;;;;;;;
2021/07/02 01:13:21;;;;;;;5.3;4.5;;;;;;;;;;;;;
2021/07/02 01:15:49;;;;;;;7.2;4.9;;;;;;;;;;;;;
2021/07/02 01:18:14;;;;;;;7.9;4.7;;;;;;;;;;;;;
2021/07/02 01:20:40;;;;;;;5.7;4.8;;;;;;;;;;;;;
2021/07/02 01:23:05;;;;;;;6.1;5;;;;;;;;;;;;;
2021/07/02 01:25:30;;;;;;;6.6;5.7;;;;;;;;;;;;;
2021/07/02 01:27:55;;;;;;;6.4;5.3;;;;;;;;;;;;;
2021/07/02 01:30:20;;;;;;;6.8;5.6;;;;;;;;;;;;;
2021/07/02 01:32:45;;;;;;;6.4;5.6;;;;;;;;;;;;;
2021/07/02 01:35:11;;;;;;;5.6;5.1;;;;;;;;;;;;;
2021/07/02 01:37:36;;;;;;;6.5;5.9;;;;;;;;;;;;;
2021/07/02 01:40:02;;;;;;;6.4;5.8;;;;;;;;;;;;;
2021/07/02 01:42:27;;;;;;;6.6;5.9;;;;;;;;;;;;;
2021/07/02 01:44:53;;;;;;;6.5;5.9;;;;;;;;;;;;;
2021/07/02 01:47:18;;;;;;;8.7;6;;;;;;;;;;;;;
2021/07/02 01:49:45;;;;;;;6.9;6.2;;;;;;;;;;;;;
2021/07/02 01:52:10;;;;;;;6.7;6;;;;;;;;;;;;;
2021/07/02 01:54:36;;;;;;;6.5;5.9;;;;;;;;;;;;;
2021/07/02 01:57:01;;;;;;;5.6;5.1;;;;;;;;;;;;;
2021/07/02 01:59:26;;;;;;;5.9;5.3;;;;;;;;;;;;;
2021/07/02 02:01:51;;;;;;;8.2;6;;;;;;;;;;;;;
2021/07/02 02:04:16;;;;;;;5.6;5.1;;;;;;;;;;;;;
2021/07/02 02:06:41;;;;;;;6.5;5.3;;;;;;;;;;;;;
2021/07/02 02:09:06;;;;;;;6.1;5.2;;;;;;;;;;;;;
2021/07/02 02:11:33;;;;;;;6.2;5.2;;;;;;;;;;;;;
2021/07/02 02:13:58;;;;;;;6.3;5;;;;;;;;;;;;;
2021/07/02 02:16:28;;;;;;;6.1;5.5;;;;;;;;;;;;;
2021/07/02 02:18:55;;;;;;;7;5.5;;;;;;;;;;;;;
2021/07/02 02:21:20;;;;;;;6.9;5.1;;;;;;;;;;;;;
2021/07/02 02:23:46;;;;;;;6.4;4.9;;;;;;;;;;;;;
2021/07/02 02:26:11;;;;;;;7.4;5.1;;;;;;;;;;;;;
2021/07/02 02:28:36;;;;;;;6.7;5.1;;;;;;;;;;;;;
2021/07/02 02:31:01;;;;;;;5.6;5.1;;;;;;;;;;;;;
2021/07/02 02:33:26;;;;;;;7;5;;;;;;;;;;;;;
2021/07/02 02:35:51;;;;;;;6.2;4.7;;;;;;;;;;;;;
2021/07/02 02:38:16;;;;;;;6.4;5.2;;;;;;;;;;;;;
2021/07/02 02:40:41;;;;;;;5.5;4.9;;;;;;;;;;;;;
2021/07/02 02:43:07;;;;;;;6.8;5.1;;;;;;;;;;;;;
2021/07/02 02:45:33;;;;;;;7.3;5.1;;;;;;;;;;;;;
2021/07/02 02:47:58;;;;;;;6;5.2;;;;;;;;;;;;;
2021/07/02 02:50:24;;;;;;;7;5.2;;;;;;;;;;;;;
2021/07/02 02:52:49;;;;;;;5.8;5.2;;;;;;;;;;;;;
2021/07/02 02:55:15;;;;;;;5.6;5.1;;;;;;;;;;;;;
2021/07/02 02:57:40;;;;;;;5.5;4.9;;;;;;;;;;;;;
2021/07/02 03:00:09;;;;;;;6.2;5.5;;;;;;;;;;;;;
2021/07/02 03:02:34;;;;;;;7.1;5.6;;;;;;;;;;;;;
2021/07/02 03:04:59;;;;;;;6;5.1;;;;;;;;;;;;;
2021/07/02 03:07:25;;;;;;;6.5;5;;;;;;;;;;;;;
2021/07/02 03:10:00;;;;;;;6.7;4.9;;;;;;;;;;;;;
2021/07/02 03:12:25;;;;;;;8;4.4;;;;;;;;;;;;;
2021/07/02 03:14:53;;;;;;;8.6;5.2;;;;;;;;;;;;;
2021/07/02 03:17:18;;;;;;;10.2;4.9;;;;;;;;;;;;;
2021/07/02 03:19:43;;;;;;;7.7;5.3;;;;;;;;;;;;;
2021/07/02 03:22:08;;;;;;;5;4.5;;;;;;;;;;;;;
2021/07/02 03:24:33;;;;;;;5.1;4.4;;;;;;;;;;;;;
2021/07/02 03:26:59;;;;;;;8.6;4.7;;;;;;;;;;;;;
2021/07/02 03:29:24;;;;;;;6.1;4.2;;;;;;;;;;;;;
2021/07/02 03:31:50;;;;;;;5.9;4.5;;;;;;;;;;;;;
2021/07/02 03:34:15;;;;;;;5.5;4.4;;;;;;;;;;;;;
2021/07/02 03:36:41;;;;;;;7.2;4.6;;;;;;;;;;;;;
2021/07/02 03:39:06;;;;;;;6.8;4.8;;;;;;;;;;;;;
2021/07/02 03:41:32;;;;;;;7.1;5;;;;;;;;;;;;;
2021/07/02 03:44:03;;;;;;;6.7;4.8;;;;;;;;;;;;;
2021/07/02 03:46:22;;;;;;;5.4;4.6;;;;;;;;;;;;;
2021/07/02 03:48:47;;;;;;;6.9;4.7;;;;;;;;;;;;;
2021/07/02 03:51:13;;;;;;;7;4.8;;;;;;;;;;;;;
2021/07/02 03:53:38;;;;;;;8.3;5.4;;;;;;;;;;;;;
2021/07/02 03:57:10;;;;;;;10.4;5.5;;;;;;;;;;;;;
2021/07/02 03:58:59;;;;;;;6.5;5.1;;;;;;;;;;;;;
2021/07/02 04:02:30;;;;;;;7.7;5.5;;;;;;;13.99;90.93359;939.3155;;;;
2021/07/02 04:04:55;;;;;;;5.3;4.4;;;;;;;13.96;91.22559;939.2507;;;;
2021/07/02 04:07:24;;;;;;;7;4.8;;;;;;;13.75;92.91504;939.2692;;;;
2021/07/02 04:09:47;;;;;;;7.3;5.1;;;;;;;13.75;92.85742;939.2468;;;;
2021/07/02 04:12:13;;;;;;;7.2;4.6;;;;;;;13.84;92.02734;939.1669;;;;
2021/07/02 04:14:38;;;;;;;5.9;4.7;;;;;;;13.94;91.55371;939.2892;;;;
2021/07/02 04:17:03;;;;;;;7.4;4.5;;;;;;;13.97;91.20215;939.3339;;;;
2021/07/02 04:19:31;;;;;;;7.1;5;;;;;;;13.99;90.75879;939.3195;;;;
2021/07/02 04:21:56;;;;;;;6;4.3;;;;;;;13.99;90.65723;939.4036;;;;
2021/07/02 04:24:26;;;;;;;6.8;4.7;;;;;;;13.97;90.77832;939.3876;;;;
2021/07/02 04:26:49;;;;;;;5.3;4.8;;;;;;;13.96;90.90332;939.3795;;;;
2021/07/02 04:29:18;;;;;;;6.9;4.9;;;;;;;13.99;90.70117;939.3964;;;;
2021/07/02 04:31:43;;;;;;;5.9;4.7;;;;;;;14;90.21973;939.3379;;;;
2021/07/02 04:34:09;;;;;;;6.8;4.9;;;;;;;13.91;90.24707;939.4045;;;;
2021/07/02 04:36:35;;;;;;;7.4;4.7;;;;;;;13.89;90.45117;939.3861;;;;
2021/07/02 04:39:01;;;;;;;6.7;4.8;;;;;;;13.97;89.66211;939.382;;;;
2021/07/02 04:41:26;;;;;;;9.5;5;;;;;;;14.07;89.40625;939.3461;;;;
2021/07/02 04:43:52;;;;;;;5.6;4.9;;;;;;;14.05;89.34277;939.3702;;;;
2021/07/02 04:46:17;;;;;;;5.3;4.8;;;;;;;13.9;89.79688;939.334;;;;
2021/07/02 04:48:43;;;;;;;4.7;4.3;;;;;;;13.95;89.33594;939.346;;;;
2021/07/02 04:51:08;;;;;;;5.8;4.6;;;;;;;14.07;89.36035;939.3669;;;;
2021/07/02 04:53:35;;;;;;;9.3;5;;;;;;;14.3;88.86523;939.3617;;;;
2021/07/02 04:56:00;;;;;;;5.2;4.7;;;;;;;14.43;87.86719;939.3312;;;;
2021/07/02 04:58:26;;;;;;;7.1;4.6;;;;;;;14.54;87.15137;939.3582;;;;
2021/07/02 05:00:50;;;;;;;5.6;4.1;;;;;;;14.72;86.60938;939.3312;;;;
2021/07/02 05:03:16;;;;;;;4.7;4.2;;;;;;;14.57;85.8916;939.3405;;;;
2021/07/02 05:05:42;;;;;;;5.7;4.5;;;;;;;14.32;87.55566;939.34;;;;
2021/07/02 05:08:07;;;;;;;6.5;4.9;;;;;;;14.7;86.7002;939.3642;;;;
2021/07/02 05:10:37;;;;;;;7.2;5;;;;;;;14.95;84.77637;939.3303;;;;
2021/07/02 05:13:07;;;;;;;8.6;4.5;;;;;;;15.03;84.82617;939.323;;;;
2021/07/02 05:15:43;;;;;;;5.1;4.6;;;;;;;15.1;84.77148;939.2648;;;;
2021/07/02 05:18:08;;;;;;;6.2;4.3;;;;;;;15.08;84.8584;939.3299;;;;
2021/07/02 05:20:36;;;;;;;6;4;;;;;;;;;;;;;
2021/07/02 05:23:01;;;;;;;4.2;3.2;;;;;;;;;;;;;
2021/07/02 05:25:26;;;;;;;5.1;3.1;;;;;;;;;;;;;
2021/07/02 05:27:52;;;;;;;3.4;2.4;;;;;;;;;;;;;
2021/07/02 05:30:18;;;;;;;5.1;2.6;;;;;;;;;;;;;
2021/07/02 05:32:43;;;;;;;3.1;2.4;;;;;;;;;;;;;
2021/07/02 05:35:09;;;;;;;4.5;2.5;;;;;;;;;;;;;
2021/07/02 05:37:34;;;;;;;5.3;2.3;;;;;;;;;;;;;
2021/07/02 05:39:59;;;;;;;3.2;2.1;;;;;;;;;;;;;
2021/07/02 05:42:25;;;;;;;2.7;2.4;;;;;;;;;;;;;
2021/07/02 05:44:49;;;;;;;3.8;2.3;;;;;;;;;;;;;
2021/07/02 05:47:15;;;;;;;5.6;2.7;;;;;;;;;;;;;
2021/07/02 05:49:40;;;;;;;2.4;2.2;;;;;;;;;;;;;
2021/07/02 05:52:06;;;;;;;4.7;2.2;;;;;;;;;;;;;
2021/07/02 05:54:31;;;;;;;4.6;2.3;;;;;;;;;;;;;
2021/07/02 05:56:56;;;;;;;3.5;2.3;;;;;;;;;;;;;
2021/07/02 05:59:21;;;;;;;3.3;2;;;;;;;;;;;;;
2021/07/02 06:01:48;;;;;;;4.1;2.1;;;;;;;;;;;;;
2021/07/02 06:04:14;;;;;;;2.9;2.1;;;;;;;;;;;;;
2021/07/02 06:06:39;;;;;;;3.3;2;;;;;;;;;;;;;
2021/07/02 06:09:04;;;;;;;3.4;2.5;;;;;;;;;;;;;
2021/07/02 06:11:30;;;;;;;2.3;2.1;;;;;;;;;;;;;
2021/07/02 06:13:55;;;;;;;2.6;2.3;;;;;;;;;;;;;
2021/07/02 06:16:24;;;;;;;2.3;2.1;;;;;;;;;;;;;
2021/07/02 06:18:49;;;;;;;2.4;2.2;;;;;;;;;;;;;
2021/07/02 06:21:14;;;;;;;3;2.2;;;;;;;;;;;;;
2021/07/02 06:23:39;;;;;;;5.5;2.6;;;;;;;;;;;;;
2021/07/02 06:26:04;;;;;;;5;2.6;;;;;;;;;;;;;
2021/07/02 06:28:30;;;;;;;3.8;2.7;;;;;;;;;;;;;
2021/07/02 06:30:55;;;;;;;5.5;2.6;;;;;;;;;;;;;
2021/07/02 06:33:20;;;;;;;5;2.5;;;;;;;;;;;;;
2021/07/02 06:35:45;;;;;;;3.6;2.8;;;;;;;;;;;;;
2021/07/02 06:38:11;;;;;;;3.3;2.5;;;;;;;;;;;;;
2021/07/02 06:40:36;;;;;;;4.1;3;;;;;;;;;;;;;
2021/07/02 06:43:02;;;;;;;3.4;2.4;;;;;;;;;;;;;
2021/07/02 06:45:27;;;;;;;4.3;2.7;;;;;;;;;;;;;
2021/07/02 06:47:55;;;;;;;3.4;2.6;;;;;;;;;;;;;
2021/07/02 06:50:18;;;;;;;4.3;2.9;;;;;;;;;;;;;
2021/07/02 06:52:43;;;;;;;3.4;3.1;;;;;;;;;;;;;
2021/07/02 06:55:09;;;;;;;4;2.9;;;;;;;;;;;;;
2021/07/02 06:57:34;;;;;;;3.5;3.2;;;;;;;;;;;;;
2021/07/02 07:00:02;;;;;;;4.5;3.3;;;;;;;;;;;;;
2021/07/02 07:02:24;;;;;;;3.9;3.1;;;;;;;;;;;;;
2021/07/02 07:04:49;;;;;;;3.6;3.1;;;;;;;;;;;;;
2021/07/02 07:07:14;;;;;;;4.3;3.3;;;;;;;;;;;;;
2021/07/02 07:09:40;;;;;;;3.1;2.9;;;;;;;;;;;;;
2021/07/02 07:12:05;;;;;;;3.7;3.3;;;;;;;;;;;;;
2021/07/02 07:14:32;;;;;;;3.5;3.2;;;;;;;;;;;;;
2021/07/02 07:16:58;;;;;;;3.5;3.2;;;;;;;;;;;;;
2021/07/02 07:19:26;;;;;;;3.5;3.1;;;;;;;;;;;;;
2021/07/02 07:21:48;;;;;;;3.2;2.9;;;;;;;;;;;;;
2021/07/02 07:24:14;;;;;;;2.8;2.5;;;;;;;;;;;;;
2021/07/02 07:26:39;;;;;;;3.2;2.9;;;;;;;;;;;;;
2021/07/02 07:29:04;;;;;;;3.7;2.7;;;;;;;;;;;;;
2021/07/02 07:31:30;;;;;;;3.8;3.1;;;;;;;;;;;;;
2021/07/02 07:33:56;;;;;;;4.2;3.2;;;;;;;;;;;;;
2021/07/02 07:36:22;;;;;;;3.5;2.9;;;;;;;;;;;;;
2021/07/02 07:38:45;;;;;;;2.7;2.5;;;;;;;;;;;;;
2021/07/02 07:41:10;;;;;;;3.3;3;;;;;;;;;;;;;
2021/07/02 07:43:35;;;;;;;3.9;2.7;;;;;;;;;;;;;
2021/07/02 07:46:00;;;;;;;4.6;3.3;;;;;;;;;;;;;
2021/07/02 07:48:25;;;;;;;2.9;2.7;;;;;;;;;;;;;
2021/07/02 07:50:53;;;;;;;3.3;3;;;;;;;;;;;;;
2021/07/02 07:53:16;;;;;;;3.1;2.8;;;;;;;;;;;;;
2021/07/02 07:55:41;;;;;;;3.4;2.8;;;;;;;;;;;;;
2021/07/02 07:58:16;;;;;;;3.7;3;;;;;;;;;;;;;
2021/07/02 08:00:41;;;;;;;4.3;2.9;;;;;;;;;;;;;
2021/07/02 08:03:06;;;;;;;3.4;2.8;;;;;;;;;;;;;
2021/07/02 08:05:31;;;;;;;2.9;2.7;;;;;;;;;;;;;
2021/07/02 08:07:56;;;;;;;2.9;2.7;;;;;;;;;;;;;
2021/07/02 08:10:23;;;;;;;3.4;2.9;;;;;;;;;;;;;
2021/07/02 08:12:48;;;;;;;3.2;2.9;;;;;;;;;;;;;
2021/07/02 08:15:13;;;;;;;4.9;3.3;;;;;;;;;;;;;
2021/07/02 08:17:38;;;;;;;3.3;3;;;;;;;;;;;;;
2021/07/02 08:20:07;;;;;;;3.7;3.3;;;;;;;;;;;;;
2021/07/02 08:22:33;;;;;;;5.5;3.2;;;;;;;;;;;;;
2021/07/02 08:24:58;;;;;;;3.8;3;;;;;;;;;;;;;
2021/07/02 08:27:24;;;;;;;3.6;3;;;;;;;;;;;;;
2021/07/02 08:29:49;;;;;;;4.1;3.7;;;;;;;;;;;;;
2021/07/02 08:32:14;;;;;;;3.5;3.2;;;;;;;;;;;;;
2021/07/02 08:34:40;;;;;;;5.4;3.5;;;;;;;;;;;;;
2021/07/02 08:37:05;;;;;;;4.2;3.8;;;;;;;;;;;;;
2021/07/02 08:39:30;;;;;;;5.1;3.9;;;;;;;;;;;;;
2021/07/02 08:41:55;;;;;;;3.9;3.5;;;;;;;;;;;;;
2021/07/02 08:44:23;;;;;;;3.7;3.4;;;;;;;;;;;;;
2021/07/02 08:46:48;;;;;;;3.3;3;;;;;;;;;;;;;
2021/07/02 08:49:13;;;;;;;3.8;3.1;;;;;;;;;;;;;
2021/07/02 08:51:38;;;;;;;3.6;3.2;;;;;;;;;;;;;
2021/07/02 08:54:05;;;;;;;7.1;3.1;;;;;;;;;;;;;
2021/07/02 08:56:30;;;;;;;3.5;3.2;;;;;;;;;;;;;
2021/07/02 08:58:55;;;;;;;3.3;3;;;;;;;;;;;;;
2021/07/02 09:01:20;;;;;;;3.9;3.5;;;;;;;;;;;;;
2021/07/02 09:03:46;;;;;;;5.3;3.7;;;;;;;;;;;;;
2021/07/02 09:06:11;;;;;;;4.1;3.3;;;;;;;;;;;;;
2021/07/02 09:08:36;;;;;;;3.5;3.2;;;;;;;;;;;;;
2021/07/02 09:11:02;;;;;;;4.2;3.2;;;;;;;;;;;;;
2021/07/02 09:13:27;;;;;;;3.4;2.9;;;;;;;;;;;;;
2021/07/02 09:15:56;;;;;;;3.1;2.7;;;;;;;;;;;;;
2021/07/02 09:18:21;;;;;;;3.1;2.8;;;;;;;;;;;;;
2021/07/02 09:20:50;;;;;;;2.9;2.7;;;;;;;;;;;;;
2021/07/02 09:23:15;;;;;;;2.8;2.6;;;;;;;;;;;;;
2021/07/02 09:25:45;;;;;;;4.2;2.9;;;;;;;;;;;;;
2021/07/02 09:28:06;;;;;;;3.4;3.1;;;;;;;;;;;;;
2021/07/02 09:30:34;;;;;;;5.9;4.8;;;;;;;;;;;;;
2021/07/02 09:32:59;;;;;;;4.2;3.8;;;;;;;;;;;;;
2021/07/02 09:35:25;;;;;;;6;4.2;;;;;;;;;;;;;
2021/07/02 09:37:50;;;;;;;5.1;3.5;;;;;;;;;;;;;
2021/07/02 09:40:18;;;;;;;3.6;3;;;;;;;;;;;;;
2021/07/02 09:42:41;;;;;;;4.9;3;;;;;;;;;;;;;
2021/07/02 09:45:06;;;;;;;3.4;3.1;;;;;;;;;;;;;
2021/07/02 09:47:32;;;;;;;4.7;3.4;;;;;;;;;;;;;
2021/07/02 09:49:57;;;;;;;4.5;3.6;;;;;;;;;;;;;
2021/07/02 09:52:23;;;;;;;6.7;3.6;;;;;;;;;;;;;
2021/07/02 09:54:48;;;;;;;3.5;3.2;;;;;;;;;;;;;
2021/07/02 09:57:13;;;;;;;3.5;3.2;;;;;;;;;;;;;
2021/07/02 09:59:38;;;;;;;3.8;3;;;;;;;;;;;;;
2021/07/02 10:02:03;;;;;;;4.5;3.1;;;;;;;;;;;;;
2021/07/02 10:04:28;;;;;;;3.7;3.3;;;;;;;;;;;;;
2021/07/02 10:06:53;;;;;;;3.8;3.4;;;;;;;;;;;;;
2021/07/02 10:09:18;;;;;;;4.2;3.6;;;;;;;;;;;;;
2021/07/02 10:11:43;;;;;;;5.3;3.9;;;;;;;;;;;;;
2021/07/02 10:14:10;;;;;;;5.2;3.7;;;;;;;;;;;;;
2021/07/02 10:16:35;;;;;;;5.7;4.1;;;;;;;;;;;;;
2021/07/02 10:19:00;;;;;;;7.5;4.3;;;;;;;;;;;;;
2021/07/02 10:21:25;;;;;;;6;3.9;;;;;;;;;;;;;
2021/07/02 10:23:51;;;;;;;5.7;3.9;;;;;;;;;;;;;
2021/07/02 10:26:16;;;;;;;3.9;3.5;;;;;;;;;;;;;
2021/07/02 10:28:43;;;;;;;4;3.3;;;;;;;;;;;;;
2021/07/02 10:31:09;;;;;;;4.6;3.5;;;;;;;;;;;;;
2021/07/02 10:33:34;;;;;;;4.6;3.6;;;;;;;;;;;;;
2021/07/02 10:35:59;;;;;;;4.8;3.5;;;;;;;;;;;;;
2021/07/02 10:38:24;;;;;;;4.4;3.2;;;;;;;;;;;;;
2021/07/02 10:40:49;;;;;;;3.4;3.1;;;;;;;;;;;;;
2021/07/02 10:43:15;;;;;;;4.4;3.3;;;;;;;;;;;;;
2021/07/02 10:45:40;;;;;;;4.6;3.4;;;;;;;;;;;;;
2021/07/02 10:48:06;;;;;;;3.7;3;;;;;;;;;;;;;
2021/07/02 10:50:30;;;;;;;5;3.2;;;;;;;;;;;;;
2021/07/02 10:52:56;;;;;;;3.9;3.1;;;;;;;;;;;;;
2021/07/02 10:55:22;;;;;;;3.6;3.3;;;;;;;;;;;;;
2021/07/02 10:57:47;;;;;;;6.3;3.4;;;;;;;;;;;;;
2021/07/02 11:00:13;;;;;;;3.6;2.9;;;;;;;;;;;;;
2021/07/02 11:02:38;;;;;;;5.3;3.4;;;;;;;;;;;;;
2021/07/02 11:05:05;;;;;;;5.5;3.4;;;;;;;;;;;;;
2021/07/02 11:07:30;;;;;;;4.2;3.4;;;;;;;;;;;;;
2021/07/02 11:09:55;;;;;;;3.8;3.2;;;;;;;;;;;;;
2021/07/02 11:12:19;;;;;;;4.3;3.4;;;;;;;;;;;;;
2021/07/02 11:14:45;;;;;;;3.1;2.8;;;;;;;;;;;;;
2021/07/02 11:17:10;;;;;;;4.3;2.8;;;;;;;;;;;;;
2021/07/02 11:19:35;;;;;;;4;3;;;;;;;;;;;;;
2021/07/02 11:22:00;;;;;;;3.3;3;;;;;;;;;;;;;
2021/07/02 11:24:27;;;;;;;3.3;3;;;;;;;;;;;;;
2021/07/02 11:26:52;;;;;;;3.6;3.2;;;;;;;;;;;;;
2021/07/02 11:29:18;;;;;;;3.7;3.3;;;;;;;;;;;;;
2021/07/02 11:31:42;;;;;;;6.1;3.2;;;;;;;;;;;;;
2021/07/02 11:34:07;;;;;;;4;3.3;;;;;;;;;;;;;
2021/07/02 11:36:32;;;;;;;3.7;3.1;;;;;;;;;;;;;
2021/07/02 11:38:57;;;;;;;3.7;3.1;;;;;;;;;;;;;
2021/07/02 11:41:22;;;;;;;3.9;2.8;;;;;;;;;;;;;
2021/07/02 11:43:47;;;;;;;3.4;3.1;;;;;;;;;;;;;
2021/07/02 11:46:12;;;;;;;2.9;2.7;;;;;;;;;;;;;
2021/07/02 11:48:38;;;;;;;4.1;3.1;;;;;;;;;;;;;
2021/07/02 11:51:04;;;;;;;4.2;3.4;;;;;;;;;;;;;
2021/07/02 11:53:29;;;;;;;4.7;3.2;;;;;;;;;;;;;
2021/07/02 11:55:54;;;;;;;3.9;3.4;;;;;;;;;;;;;
2021/07/02 11:58:20;;;;;;;4.6;3.4;;;;;;;;;;;;;
2021/07/02 12:00:45;;;;;;;5.3;3.5;;;;;;;;;;;;;
2021/07/02 12:03:12;;;;;;;4.2;3.8;;;;;;;;;;;;;
2021/07/02 12:05:37;;;;;;;5.2;3.3;;;;;;;;;;;;;
2021/07/02 12:08:03;;;;;;;3.7;2.9;;;;;;;;;;;;;
2021/07/02 12:10:29;;;;;;;5.2;3.4;;;;;;;;;;;;;
2021/07/02 12:12:54;;;;;;;6.2;3.5;;;;;;;;;;;;;
2021/07/02 12:15:22;;;;;;;3.4;3.1;;;;;;;;;;;;;
2021/07/02 12:17:47;;;;;;;4.2;3.4;;;;;;;;;;;;;
2021/07/02 12:20:13;;;;;;;5.1;3.6;;;;;;;;;;;;;
2021/07/02 12:22:38;;;;;;;3.9;3.5;;;;;;;;;;;;;
2021/07/02 12:25:03;;;;;;;4.1;3.4;;;;;;;;;;;;;
2021/07/02 12:27:39;;;;;;;4.4;3.3;;;;;;;;;;;;;
2021/07/02 12:29:59;;;;;;;5.2;3.5;;;;;;;;;;;;;
2021/07/02 12:32:28;;;;;;;5.2;3.1;;;;;;;;;;;;;
2021/07/02 12:34:50;;;;;;;5.3;3.4;;;;;;;;;;;;;
2021/07/02 12:37:16;;;;;;;3.9;3.3;;;;;;;;;;;;;
2021/07/02 12:39:41;;;;;;;4;3.2;;;;;;;;;;;;;
2021/07/02 12:42:07;;;;;;;4.5;3.6;;;;;;;;;;;;;
2021/07/02 12:44:32;;;;;;;4.1;3.6;;;;;;;;;;;;;
2021/07/02 12:46:58;;;;;;;5.8;3.5;;;;;;;;;;;;;
2021/07/02 12:49:23;;;;;;;4.6;3.4;;;;;;;;;;;;;
2021/07/02 12:52:01;;;;;;;3.5;3;;;;;;;;;;;;;
2021/07/02 12:56:42;;;;;;;4.4;3.1;;;;;;;;;;;;;
2021/07/02 12:59:07;;;;;;;4.3;3.2;;;;;;;;;;;;;
2021/07/02 13:01:33;;;;;;;4.1;3.3;;;;;;;;;;;;;
2021/07/02 13:03:58;;;;;;;4.9;3.2;;;;;;;;;;;;;
2021/07/02 13:06:23;;;;;;;3;2.7;;;;;;;;;;;;;
2021/07/02 13:08:48;;;;;;;3.6;3.1;;;;;;;;;;;;;
2021/07/02 13:11:17;;;;;;;3.1;2.8;;;;;;;;;;;;;
2021/07/02 13:13:44;;;;;;;3.6;3.3;;;;;;;;;;;;;
2021/07/02 13:16:11;;;;;;;4.2;2.9;;;;;;;;;;;;;
2021/07/02 13:18:36;;;;;;;4;3.4;;;;;;;;;;;;;
2021/07/02 13:21:01;;;;;;;3.5;2.7;;;;;;;;;;;;;
2021/07/02 13:23:27;;;;;;;4;3.1;;;;;;;;;;;;;
2021/07/02 13:25:52;;;;;;;9.1;3.7;;;;;;;;;;;;;
2021/07/02 13:28:17;;;;;;;4.3;3;;;;;;;;;;;;;
2021/07/02 13:30:43;;;;;;;3.7;2.9;;;;;;;;;;;;;
2021/07/02 13:33:08;;;;;;;4.3;3.4;;;;;;;;;;;;;
2021/07/02 13:35:34;;;;;;;4.1;3.1;;;;;;;;;;;;;
2021/07/02 13:38:06;;;;;;;3.8;3.1;;;;;;;;;;;;;
2021/07/02 13:40:24;;;;;;;4;3.1;;;;;;;;;;;;;
2021/07/02 13:42:50;;;;;;;6.4;3;;;;;;;;;;;;;
2021/07/02 13:45:16;;;;;;;4.6;3.3;;;;;;;;;;;;;
2021/07/02 13:47:41;;;;;;;3.6;2.7;;;;;;;;;;;;;
2021/07/02 13:50:07;;;;;;;3.3;3;;;;;;;;;;;;;
2021/07/02 13:52:32;;;;;;;4.9;3.1;;;;;;;;;;;;;
2021/07/02 13:54:57;;;;;;;4;2.9;;;;;;;;;;;;;
2021/07/02 13:57:23;;;;;;;4.5;2.7;;;;;;;;;;;;;
2021/07/02 13:59:49;;;;;;;6.8;3.4;;;;;;;;;;;;;
2021/07/02 14:02:14;;;;;;;4.5;3.1;;;;;;;;;;;;;
2021/07/02 14:04:39;;;;;;;3.8;3;;;;;;;;;;;;;
2021/07/02 14:07:04;;;;;;;3.6;3.1;;;;;;;;;;;;;
2021/07/02 14:09:32;;;;;;;3.4;2.9;;;;;;;;;;;;;
2021/07/02 14:11:57;;;;;;;4.5;3;;;;;;;;;;;;;
2021/07/02 14:14:23;;;;;;;4.4;3.8;;;;;;;;;;;;;
2021/07/02 14:16:48;;;;;;;3.5;3.2;;;;;;;;;;;;;
2021/07/02 14:19:14;;;;;;;3.9;3.3;;;;;;;;;;;;;
2021/07/02 14:21:39;;;;;;;3.2;2.9;;;;;;;;;;;;;
2021/07/02 14:24:06;;;;;;;5.8;3;;;;;;;;;;;;;
2021/07/02 14:26:32;;;;;;;7.1;3.4;;;;;;;;;;;;;
2021/07/02 14:29:33;;;;;;;4.8;2.9;;;;;;;21.88;52.12988;938.7967;;;;
2021/07/02 14:31:58;;;;;;;4.3;3.4;;;;;;;21.77;52.72559;938.7645;;;;
2021/07/02 14:34:30;;;;;;;3.5;3.2;;;;;;;21.92;53.37598;938.8456;;;;
2021/07/02 14:36:58;;;;;;;4.2;2.9;;;;;;;22.28;51.83496;938.884;;;;
2021/07/02 14:39:29;;;;;;;4.2;3.2;;;;;;;22.13;52.08789;938.8962;;;;
2021/07/02 14:42:00;;;;;;;4.3;3.4;;;;;;;22.08;51.09863;938.8677;;;;
2021/07/02 14:44:29;;;;;;;5.7;3.2;;;;;;;21.86;52.28027;938.8614;;;;
2021/07/02 14:46:54;;;;;;;4.8;3.5;;;;;;;22.16;53.38184;938.895;;;;
2021/07/02 14:49:25;;;;;;;5.6;3.3;;;;;;;22.27;50.45117;938.949;;;;
2021/07/02 14:51:56;;;;;;;4.8;3.2;;;;;;;22.24;52.28809;938.9624;;;;
2021/07/02 14:54:25;;;;;;;3.7;2.8;;;;;;;21.65;51.8916;938.9274;;;;
2021/07/02 14:56:50;;;;;;;5.3;3.2;;;;;;;21.58;51.73047;938.8353;;;;
2021/07/02 14:59:19;;;;;;;3.3;3;;;;;;;21.44;52.96777;938.9548;;;;
2021/07/02 15:01:44;;;;;;;4.7;3.2;;;;;;;21.52;52.69531;938.8494;;;;
2021/07/02 15:04:10;;;;;;;3.6;3.3;;;;;;;21.69;53.82813;938.8726;;;;
2021/07/02 15:06:36;;;;;;;3.4;3;;;;;;;22.07;51.21387;938.826;;;;
2021/07/02 15:09:03;;;;;;;4;3.2;;;;;;;22.7;49.51465;938.8655;;;;
2021/07/02 15:11:28;;;;;;;5.3;3;;;;;;;22.73;49.58789;938.8945;;;;
2021/07/02 15:13:56;;;;;;;4;2.8;;;;;;;22.46;47.02246;938.8113;;;;
2021/07/02 15:16:25;;;;;;;3.2;2.9;;;;;;;22.36;49.5459;938.826;;;;
2021/07/02 15:18:57;;;;;;;4.2;2.9;;;;;;;22.26;49.6416;938.844;;;;
2021/07/02 15:21:27;;;;;;;3.1;2.8;;;;;;;22.44;47.02148;938.8947;;;;
2021/07/02 15:23:58;;;;;;;3.2;2.9;;;;;;;22.72;45.45508;938.816;;;;
2021/07/02 15:26:28;;;;;;;3.4;2.6;;;;;;;22.66;47.33789;938.9075;;;;
2021/07/02 15:28:58;;;;;;;5.9;3.2;;;;;;;22.87;46.15039;938.9028;;;;
2021/07/02 15:31:24;;;;;;;4.3;3.3;;;;;;;23.05;47.70801;938.9069;;;;
2021/07/02 15:33:49;;;;;;;5.1;3.2;;;;;;;23.3;46.83008;938.9205;;;;
2021/07/02 15:36:18;;;;;;;2.8;2.4;;;;;;;23.52;45.72461;938.905;;;;
2021/07/02 15:38:52;;;;;;;3.6;2.6;;;;;;;23.57;46.54102;938.8835;;;;
2021/07/02 15:41:09;;;;;;;3.8;2.9;;;;;;;23.44;44.83398;938.8699;;;;
2021/07/02 15:43:34;;;;;;;2.7;2.5;;;;;;;23.19;47.66504;938.8351;;;;
2021/07/02 15:46:00;;;;;;;3.2;2.6;;;;;;;22.72;46.47656;938.7842;;;;
2021/07/02 15:48:25;;;;;;;4.2;2.7;;;;;;;22.68;47.78711;938.8019;;;;
2021/07/02 15:50:52;;;;;;;2.8;2.5;;;;;;;22.55;47.86621;938.808;;;;
2021/07/02 15:53:17;;;;;;;2.8;2.3;;;;;;;22.58;50.09863;938.778;;;;
2021/07/02 15:55:43;;;;;;;5;2.7;;;;;;;22.83;47.14551;938.7686;;;;
2021/07/02 15:58:07;;;;;;;2.9;2.6;;;;;;;22.66;47.63184;938.7697;;;;
2021/07/02 16:00:33;;;;;;;2.7;2.5;;;;;;;22.31;48.35645;938.7726;;;;
2021/07/02 16:02:59;;;;;;;4.2;2.8;;;;;;;22.76;47.75977;938.7658;;;;
2021/07/02 16:05:24;;;;;;;3.1;2.6;;;;;;;22.86;44.55273;938.7637;;;;
2021/07/02 16:07:53;;;;;;;4.8;2.7;;;;;;;23.17;44.67871;938.7917;;;;
2021/07/02 16:10:18;;;;;;;2.8;2.5;;;;;;;23.29;46.1709;938.7957;;;;
2021/07/02 16:12:45;;;;;;;3.8;2.8;;;;;;;23.3;46.68848;938.7117;;;;
2021/07/02 16:15:11;;;;;;;3;2.5;;;;;;;23.4;44.71191;938.7583;;;;
2021/07/02 16:17:42;;;;;;;4.1;2.7;;;;;;;23.32;43.92871;938.7841;;;;
2021/07/02 16:20:42;;;;;;;4.1;2.7;;;;;;;23.49;43.73438;938.7696;;;;
2021/07/02 16:25:37;;;;;;;3.6;2.5;;;;;;;23.43;43.0459;938.7946;;;;
2021/07/02 16:28:03;;;;;;;3.3;2.7;;;;;;;23.09;44.61133;938.8647;;;;
2021/07/02 16:30:27;;;;;;;3.8;2.6;;;;;;;22.84;43.95117;938.81;;;;
2021/07/02 16:32:52;;;;;;;3.2;2.8;;;;;;;22.74;44.94043;938.8923;;;;
2021/07/02 16:35:19;;;;;;;4.7;2.9;;;;;;;22.81;44.24219;938.8917;;;;
2021/07/02 16:37:45;;;;;;;3.5;2.7;;;;;;;22.82;46.69824;938.8385;;;;
2021/07/02 16:40:10;;;;;;;4.8;2.6;;;;;;;22.56;48.65234;938.7827;;;;
2021/07/02 16:42:35;;;;;;;4.2;2.7;;;;;;;22.56;46.21289;938.8953;;;;
2021/07/02 16:45:00;;;;;;;4.1;2.9;;;;;;;22.54;46.11719;938.8994;;;;
2021/07/02 16:47:27;;;;;;;3.3;3;;;;;;;22.31;45.96387;938.9055;;;;
2021/07/02 16:49:52;;;;;;;4;2.7;;;;;;;21.79;47.31641;938.8409;;;;
2021/07/02 16:52:18;;;;;;;3.2;2.7;;;;;;;21.83;47.80078;938.8975;;;;
2021/07/02 16:54:43;;;;;;;4.2;3.1;;;;;;;21.69;49.45996;938.93;;;;
2021/07/02 16:57:08;;;;;;;3.6;2.6;;;;;;;21.71;48.4668;938.9669;;;;
2021/07/02 17:01:59;;;;;;;3.4;2.9;;;;;;;21.99;47.57129;939.026;;;;
2021/07/02 17:04:24;;;;;;;5.4;3.1;;;;;;;22.04;48.31543;938.9752;;;;
2021/07/02 17:06:49;;;;;;;6.9;3.5;;;;;;;22.14;47.97363;938.9445;;;;
2021/07/02 17:09:14;;;;;;;3.3;3;;;;;;;22.2;47.85156;939.0217;;;;
2021/07/02 17:11:41;;;;;;;3.5;3.2;;;;;;;21.6;49.3916;938.9447;;;;
2021/07/02 17:14:06;;;;;;;3.8;3;;;;;;;21.78;48.69727;939.0251;;;;
2021/07/02 17:16:31;;;;;;;4.8;3.1;;;;;;;21.75;46.62012;938.9833;;;;
2021/07/02 17:18:58;;;;;;;3.8;3.2;;;;;;;21.63;47.01758;939.0156;;;;
2021/07/02 17:21:23;;;;;;;4.2;3.4;;;;;;;21.34;47.33691;939.051;;;;
2021/07/02 17:23:48;;;;;;;3.8;3.3;;;;;;;21.31;47.76758;939.1141;;;;
2021/07/02 17:26:17;;;;;;;3.5;3.2;;;;;;;21.36;47.53906;939.2285;;;;
2021/07/02 17:31:09;;;;;;;3.8;3.3;;;;;;;21.33;47.25391;939.236;;;;
2021/07/02 17:33:33;;;;;;;4.8;3.6;;;;;;;21.28;47.81152;939.2584;;;;
2021/07/02 17:36:02;;;;;;;5.4;3.6;;;;;;;21.31;48.70313;939.3312;;;;
2021/07/02 17:38:27;;;;;;;3.9;3.6;;;;;;;21.25;48.76758;939.3557;;;;
2021/07/02 17:40:58;;;;;;;4.5;3.5;;;;;;;21.12;48.61328;939.4099;;;;
2021/07/02 17:43:23;;;;;;;4.3;3.5;;;;;;;21.13;49.01074;939.4235;;;;
2021/07/02 17:45:48;;;;;;;5;4;;;;;;;20.85;50.66309;939.4545;;;;
2021/07/02 17:48:15;;;;;;;3.8;3.4;;;;;;;20.87;50.5498;939.4703;;;;
2021/07/02 17:50:40;;;;;;;4.3;3.9;;;;;;;20.95;51.13184;939.4299;;;;
2021/07/02 17:53:09;;;;;;;4.4;3.6;;;;;;;20.97;49.71875;939.4431;;;;
2021/07/02 17:55:35;;;;;;;4;3.6;;;;;;;20.86;50.20996;939.4365;;;;
2021/07/02 17:58:01;;;;;;;4.7;3.8;;;;;;;20.89;49.26563;939.4381;;;;
2021/07/02 18:00:26;;;;;;;5.1;3.8;;;;;;;20.89;50.41113;939.4373;;;;
2021/07/02 18:02:54;;;;;;;4.2;3.8;;;;;;;20.73;51.19824;939.4789;;;;
2021/07/02 18:05:19;;;;;;;5.1;3.6;;;;;;;20.63;50.80273;939.4792;;;;
2021/07/02 18:07:47;;;;;;;5.8;4.2;;;;;;;20.66;50.7002;939.4905;;;;
2021/07/02 18:10:14;;;;;;;5.5;3.5;;;;;;;20.65;50.81641;939.4753;;;;
2021/07/02 18:12:40;;;;;;;4.6;4.1;;;;;;;20.56;51.33105;939.4371;;;;
2021/07/02 18:15:05;;;;;;;5.8;4;;;;;;;20.62;51.07031;939.4597;;;;
2021/07/02 18:17:30;;;;;;;4.9;3.8;;;;;;;20.51;50.91699;939.525;;;;
2021/07/02 18:20:00;;;;;;;5.7;4.2;;;;;;;20.32;51.32617;939.5212;;;;
2021/07/02 18:22:29;;;;;;;4.7;4;;;;;;;20.4;51.32422;939.5792;;;;
2021/07/02 18:24:54;;;;;;;5.4;4.1;;;;;;;20.41;51.57129;939.579;;;;
2021/07/02 18:27:22;;;;;;;5.7;4.5;;;;;;;20.4;51.05664;939.558;;;;
2021/07/02 18:29:47;;;;;;;4.8;4;;;;;;;20.32;51;939.4889;;;;
2021/07/02 18:32:16;;;;;;;6.1;4.2;;;;;;;20.14;53.0459;939.5175;;;;